createdAt,value
2018-03-03T00:01:43.742Z,77.33
2018-03-03T00:04:11.285Z,81.50
2018-03-03T00:06:38.857Z,78.93
2018-03-03T00:09:06.394Z,81.43
2018-03-03T00:11:33.952Z,75.00
2018-03-03T00:14:01.491Z,76.67
2018-03-03T00:16:29.059Z,79.97
2018-03-03T00:18:56.596Z,77.43
2018-03-03T00:21:24.148Z,78.80
2018-03-03T00:23:52.098Z,79.35
2018-03-03T00:26:19.676Z,80.23
2018-03-03T00:28:47.256Z,83.27
2018-03-03T00:31:14.791Z,75.43
2018-03-03T00:33:42.357Z,76.90
2018-03-03T00:36:10.367Z,80.03
2018-03-03T00:38:37.967Z,78.27
2018-03-03T00:41:05.493Z,84.13
2018-03-03T00:43:33.051Z,79.20
2018-03-03T00:46:00.634Z,81.93
2018-03-03T00:48:28.178Z,76.80
2018-03-03T00:50:55.745Z,81.28
2018-03-03T00:53:23.302Z,80.62
2018-03-03T00:55:50.870Z,86.00
2018-03-03T00:58:18.413Z,79.87
2018-03-03T01:00:45.994Z,78.13
2018-03-03T01:03:13.540Z,82.50
2018-03-03T01:05:41.132Z,77.77
2018-03-03T01:08:08.715Z,79.30
2018-03-03T01:10:36.256Z,84.63
2018-03-03T01:13:03.812Z,83.30
2018-03-03T01:15:31.349Z,76.20
2018-03-03T01:17:58.950Z,79.47
2018-03-03T01:20:26.583Z,83.23
2018-03-03T01:22:54.157Z,88.90
2018-03-03T01:25:21.687Z,79.57
2018-03-03T01:27:49.263Z,86.87
2018-03-03T01:30:16.816Z,86.35
2018-03-03T01:32:44.386Z,87.10
2018-03-03T01:35:11.930Z,79.37
2018-03-03T01:37:39.471Z,84.03
2018-03-03T01:40:07.060Z,82.90
2018-03-03T01:42:34.623Z,85.15
2018-03-03T01:45:02.185Z,85.40
2018-03-03T01:47:29.720Z,86.33
2018-03-03T01:49:57.299Z,82.33
2018-03-03T01:52:24.839Z,85.03
2018-03-03T01:54:52.417Z,83.55
2018-03-03T01:57:19.957Z,87.07
2018-03-03T01:59:47.548Z,85.60
2018-03-03T02:02:15.093Z,88.03
2018-03-03T02:04:42.622Z,86.57
2018-03-03T02:07:10.964Z,89.03
2018-03-03T02:09:38.505Z,88.67
2018-03-03T02:12:06.084Z,91.30
2018-03-03T02:14:33.630Z,93.80
2018-03-03T02:17:01.189Z,92.87
2018-03-03T02:19:28.711Z,85.20
2018-03-03T02:21:56.291Z,89.87
2018-03-03T02:24:23.812Z,85.67
2018-03-03T02:26:51.416Z,88.63
2018-03-03T02:29:18.950Z,92.20
2018-03-03T02:31:46.480Z,87.50
2018-03-03T02:34:14.575Z,102.55
2018-03-03T02:36:42.125Z,98.50
2018-03-03T02:39:09.704Z,96.93
2018-03-03T02:41:37.250Z,88.23
2018-03-03T02:44:04.849Z,89.17
2018-03-03T02:46:32.377Z,89.83
2018-03-03T02:48:59.948Z,85.60
2018-03-03T02:51:27.492Z,88.62
2018-03-03T02:53:55.061Z,91.93
2018-03-03T02:56:22.609Z,90.90
2018-03-03T02:58:50.205Z,89.05
2018-03-03T03:01:17.737Z,89.93
2018-03-03T03:03:45.299Z,89.37
2018-03-03T03:06:12.878Z,89.47
2018-03-03T03:08:40.411Z,89.80
2018-03-03T03:11:07.985Z,86.50
2018-03-03T03:13:35.526Z,94.75
2018-03-03T03:16:03.097Z,92.37
2018-03-03T03:18:30.640Z,96.00
2018-03-03T03:20:58.216Z,85.53
2018-03-03T03:23:25.845Z,89.93
2018-03-03T03:25:53.417Z,94.68
2018-03-03T03:28:20.951Z,88.68
2018-03-03T03:30:48.541Z,91.83
2018-03-03T03:33:16.077Z,98.73
2018-03-03T03:35:44.493Z,94.53
2018-03-03T03:38:12.244Z,90.47
2018-03-03T03:40:39.786Z,87.03
2018-03-03T03:43:07.356Z,92.80
2018-03-03T03:45:34.888Z,94.17
2018-03-03T03:48:02.493Z,92.43
2018-03-03T03:50:30.020Z,92.97
2018-03-03T03:52:57.599Z,86.23
2018-03-03T03:55:25.151Z,98.17
2018-03-03T03:57:52.703Z,90.97
2018-03-03T04:00:20.264Z,89.13
2018-03-03T04:02:47.812Z,93.97
2018-03-03T04:05:15.375Z,95.70
2018-03-03T04:07:42.913Z,92.83
2018-03-03T04:10:10.478Z,89.47
2018-03-03T04:12:38.013Z,88.43
2018-03-03T04:15:05.602Z,86.50
2018-03-03T04:17:33.164Z,89.30
2018-03-03T04:20:00.720Z,88.57
2018-03-03T04:22:28.289Z,77.47
2018-03-03T04:24:55.819Z,84.80
2018-03-03T04:27:23.403Z,81.20
2018-03-03T04:29:50.931Z,79.67
2018-03-03T04:32:18.569Z,80.83
2018-03-03T04:34:46.122Z,80.93
2018-03-03T04:37:13.763Z,78.90
2018-03-03T04:39:41.300Z,78.33
2018-03-03T04:42:08.829Z,79.20
2018-03-03T04:44:36.393Z,81.10
2018-03-03T04:47:03.947Z,80.18
2018-03-03T04:49:31.523Z,79.65
2018-03-03T04:51:59.059Z,73.13
2018-03-03T04:54:26.627Z,78.87
2018-03-03T04:56:54.171Z,78.87
2018-03-03T05:02:37.010Z,77.60
2018-03-03T05:05:07.999Z,73.62
2018-03-03T05:07:37.352Z,76.78
2018-03-03T05:10:04.954Z,79.17
2018-03-03T05:12:34.916Z,79.10
2018-03-03T05:15:08.007Z,82.25
2018-03-03T05:17:41.241Z,79.22
2018-03-03T05:23:16.002Z,71.57
2018-03-03T05:25:49.226Z,72.93
2018-03-03T05:31:22.176Z,70.43
2018-03-03T05:36:55.109Z,69.97
2018-03-03T05:39:28.205Z,63.55
2018-03-03T05:45:10.241Z,69.43
2018-03-03T05:47:38.320Z,62.83
2018-03-03T05:50:11.465Z,65.03
2018-03-03T05:52:44.451Z,58.93
2018-03-03T05:55:17.677Z,61.37
2018-03-03T05:57:51.528Z,62.38
2018-03-03T06:03:27.540Z,62.50
2018-03-03T06:06:08.884Z,58.27
2018-03-03T06:08:42.090Z,55.37
2018-03-03T06:11:09.644Z,57.40
2018-03-03T06:13:37.217Z,58.43
2018-03-03T06:16:04.786Z,57.62
2018-03-03T06:18:32.395Z,53.50
2018-03-03T06:20:59.929Z,56.87
2018-03-03T06:23:27.500Z,56.07
2018-03-03T06:25:55.035Z,54.20
2018-03-03T06:28:22.556Z,57.00
2018-03-03T06:30:50.109Z,59.30
2018-03-03T06:33:17.718Z,52.73
2018-03-03T06:35:46.045Z,49.55
2018-03-03T06:38:13.576Z,52.63
2018-03-03T06:40:41.155Z,52.33
2018-03-03T06:43:08.695Z,53.83
2018-03-03T06:45:36.276Z,52.23
2018-03-03T06:48:03.862Z,53.17
2018-03-03T06:50:31.440Z,55.10
2018-03-03T06:52:59.037Z,58.42
2018-03-03T06:55:26.596Z,54.27
2018-03-03T06:57:54.190Z,55.50
2018-03-03T07:00:21.720Z,55.03
2018-03-03T07:02:49.312Z,54.70
2018-03-03T07:05:16.875Z,52.20
2018-03-03T07:07:45.062Z,50.30
2018-03-03T07:10:12.906Z,49.93
2018-03-03T07:12:40.679Z,48.77
2018-03-03T07:15:08.388Z,51.90
2018-03-03T07:17:35.936Z,48.92
2018-03-03T07:20:03.500Z,50.60
2018-03-03T07:22:31.075Z,50.57
2018-03-03T07:24:58.677Z,48.60
2018-03-03T07:27:26.209Z,50.72
2018-03-03T07:29:53.788Z,48.50
2018-03-03T07:32:21.310Z,50.20
2018-03-03T07:34:48.834Z,51.30
2018-03-03T07:37:16.400Z,48.27
2018-03-03T07:39:43.945Z,51.20
2018-03-03T07:42:11.526Z,50.87
2018-03-03T07:44:39.053Z,49.15
2018-03-03T07:47:06.628Z,47.70
2018-03-03T07:49:34.156Z,49.22
2018-03-03T07:52:01.741Z,47.10
2018-03-03T07:54:29.278Z,50.17
2018-03-03T07:57:08.656Z,52.75
2018-03-03T07:59:36.256Z,46.43
2018-03-03T08:02:03.772Z,45.10
2018-03-03T08:04:31.336Z,47.05
2018-03-03T08:06:59.051Z,47.70
2018-03-03T08:09:26.729Z,45.77
2018-03-03T08:11:54.149Z,48.58
2018-03-03T08:14:21.707Z,48.95
2018-03-03T08:16:49.256Z,46.25
2018-03-03T08:19:16.829Z,47.17
2018-03-03T08:21:44.379Z,46.00
2018-03-03T08:24:11.938Z,49.33
2018-03-03T08:26:39.503Z,48.83
2018-03-03T08:29:07.909Z,44.40
2018-03-03T08:31:35.600Z,46.27
2018-03-03T08:34:03.180Z,43.03
2018-03-03T08:36:30.756Z,46.97
2018-03-03T08:38:58.405Z,46.95
2018-03-03T08:41:28.062Z,48.77
2018-03-03T08:43:55.705Z,45.50
2018-03-03T08:46:23.245Z,46.70
2018-03-03T08:48:53.230Z,46.78
2018-03-03T08:51:21.347Z,46.30
2018-03-03T08:53:49.320Z,44.90
2018-03-03T08:56:17.368Z,45.73
2018-03-03T08:58:45.505Z,50.57
2018-03-03T09:01:13.149Z,45.87
2018-03-03T09:03:41.105Z,46.53
2018-03-03T09:06:09.107Z,50.73
2018-03-03T09:08:36.690Z,51.07
2018-03-03T09:11:04.260Z,49.83
2018-03-03T09:13:31.809Z,52.17
2018-03-03T09:15:59.367Z,51.45
2018-03-03T09:18:26.896Z,49.27
2018-03-03T09:20:54.452Z,51.80
2018-03-03T09:23:22.313Z,51.65
2018-03-03T09:25:49.951Z,52.07
2018-03-03T09:28:17.565Z,50.17
2018-03-03T09:30:45.091Z,49.80
2018-03-03T09:33:12.813Z,50.90
2018-03-03T09:35:40.345Z,52.57
2018-03-03T09:38:07.934Z,50.97
2018-03-03T09:40:35.470Z,51.70
2018-03-03T09:43:03.035Z,51.47
2018-03-03T09:45:30.571Z,54.53
2018-03-03T09:47:58.173Z,50.85
2018-03-03T09:50:25.725Z,50.12
2018-03-03T09:52:53.296Z,50.23
2018-03-03T09:55:20.823Z,51.77
2018-03-03T09:57:48.349Z,51.27
2018-03-03T10:00:15.987Z,52.43
2018-03-03T10:02:43.543Z,59.50
2018-03-03T10:05:13.667Z,54.17
2018-03-03T10:07:41.212Z,54.17
2018-03-03T10:10:08.818Z,56.23
2018-03-03T10:12:36.872Z,54.17
2018-03-03T10:15:05.120Z,56.90
2018-03-03T10:17:33.982Z,53.13
2018-03-03T10:20:08.060Z,54.23
2018-03-03T10:22:35.864Z,53.13
2018-03-03T10:25:07.955Z,53.33
2018-03-03T10:27:42.080Z,53.50
2018-03-03T10:30:13.208Z,55.20
2018-03-03T10:32:43.163Z,55.27
2018-03-03T10:35:12.930Z,54.30
2018-03-03T10:37:40.918Z,54.53
2018-03-03T10:40:08.471Z,55.57
2018-03-03T10:42:36.048Z,59.58
2018-03-03T10:45:04.884Z,58.07
2018-03-03T10:47:32.649Z,51.73
2018-03-03T10:50:11.619Z,50.67
2018-03-03T10:52:39.183Z,50.63
2018-03-03T10:55:06.730Z,59.60
2018-03-03T10:57:35.531Z,50.00
2018-03-03T11:00:03.383Z,51.00
2018-03-03T11:02:31.774Z,50.53
2018-03-03T11:04:59.859Z,48.27
2018-03-03T11:07:27.618Z,46.05
2018-03-03T11:09:55.388Z,51.80
2018-03-03T11:12:22.947Z,48.27
2018-03-03T11:14:50.601Z,47.67
2018-03-03T11:17:18.319Z,48.77
2018-03-03T11:19:46.352Z,46.60
2018-03-03T11:22:13.894Z,47.60
2018-03-03T11:24:41.985Z,47.60
2018-03-03T11:27:09.680Z,44.67
2018-03-03T11:29:37.377Z,46.17
2018-03-03T11:32:04.909Z,47.20
2018-03-03T11:34:32.445Z,48.27
2018-03-03T11:37:00.024Z,45.90
2018-03-03T11:39:31.202Z,45.00
2018-03-03T11:41:59.109Z,47.33
2018-03-03T11:44:26.983Z,47.50
2018-03-03T11:46:54.572Z,47.90
2018-03-03T11:49:22.095Z,46.83
2018-03-03T11:51:49.650Z,46.55
2018-03-03T11:54:17.187Z,46.70
2018-03-03T11:56:44.956Z,48.33
2018-03-03T11:59:12.986Z,45.33
2018-03-03T12:01:40.556Z,45.78
2018-03-03T12:04:08.112Z,45.50
2018-03-03T12:06:35.651Z,45.83
2018-03-03T12:09:03.237Z,46.63
2018-03-03T12:11:31.019Z,44.67
2018-03-03T12:13:58.577Z,46.30
2018-03-03T12:16:26.113Z,44.33
2018-03-03T12:18:53.681Z,43.40
2018-03-03T12:21:21.206Z,48.40
2018-03-03T12:23:48.787Z,46.43
2018-03-03T12:26:16.303Z,44.70
2018-03-03T12:28:43.868Z,43.60
2018-03-03T12:31:11.463Z,45.40
2018-03-03T12:33:38.991Z,47.75
2018-03-03T12:36:06.549Z,47.95
2018-03-03T12:38:34.068Z,42.87
2018-03-03T12:41:01.683Z,42.90
2018-03-03T12:43:29.223Z,41.50
2018-03-03T12:45:56.804Z,46.33
2018-03-03T12:48:24.330Z,43.87
2018-03-03T12:50:51.923Z,44.53
2018-03-03T12:53:19.446Z,41.50
2018-03-03T12:55:46.970Z,42.73
2018-03-03T12:58:14.524Z,45.20
2018-03-03T13:00:42.055Z,42.03
2018-03-03T13:03:09.606Z,45.73
2018-03-03T13:05:37.132Z,43.20
2018-03-03T13:08:04.686Z,46.57
2018-03-03T13:10:32.209Z,45.67
2018-03-03T13:12:59.780Z,45.87
2018-03-03T13:15:27.307Z,47.87
2018-03-03T13:17:54.835Z,46.05
2018-03-03T13:20:22.392Z,44.70
2018-03-03T13:22:49.918Z,47.95
2018-03-03T13:25:17.479Z,43.70
2018-03-03T13:27:44.999Z,46.20
2018-03-03T13:30:12.574Z,45.77
2018-03-03T13:32:40.097Z,48.30
2018-03-03T13:35:07.675Z,48.43
2018-03-03T13:37:35.196Z,48.20
2018-03-03T13:40:02.716Z,48.58
2018-03-03T13:42:30.276Z,51.60
2018-03-03T13:44:57.812Z,49.20
2018-03-03T13:47:25.388Z,50.75
2018-03-03T13:49:52.922Z,47.63
2018-03-03T13:52:20.487Z,49.15
2018-03-03T13:54:48.609Z,48.73
2018-03-03T13:57:16.191Z,50.00
2018-03-03T13:59:43.724Z,50.07
2018-03-03T14:02:11.255Z,52.27
2018-03-03T14:04:38.860Z,53.50
2018-03-03T14:07:06.392Z,54.72
2018-03-03T14:09:33.961Z,54.10
2018-03-03T14:12:01.490Z,52.90
2018-03-03T14:14:29.053Z,55.03
2018-03-03T14:16:56.589Z,53.38
2018-03-03T14:19:24.156Z,52.43
2018-03-03T14:21:51.704Z,54.47
2018-03-03T14:24:19.619Z,50.58
2018-03-03T14:26:47.176Z,56.27
2018-03-03T14:29:14.757Z,53.53
2018-03-03T14:31:42.283Z,51.03
2018-03-03T14:34:09.846Z,54.97
2018-03-03T14:36:37.404Z,56.50
2018-03-03T14:39:04.975Z,61.03
2018-03-03T14:41:32.547Z,58.23
2018-03-03T14:44:00.093Z,56.03
2018-03-03T14:46:29.433Z,55.63
2018-03-03T14:48:56.991Z,55.70
2018-03-03T14:51:24.524Z,62.10
2018-03-03T14:53:52.098Z,60.00
2018-03-03T14:56:19.746Z,62.55
2018-03-03T14:58:47.353Z,56.30
2018-03-03T15:01:14.909Z,57.70
2018-03-03T15:03:42.481Z,58.93
2018-03-03T15:06:10.017Z,58.53
2018-03-03T15:08:37.597Z,56.00
2018-03-03T15:11:05.118Z,57.77
2018-03-03T15:13:32.759Z,55.80
2018-03-03T15:16:00.270Z,58.87
2018-03-03T15:18:27.800Z,61.17
2018-03-03T15:20:55.362Z,58.65
2018-03-03T15:23:22.887Z,59.10
2018-03-03T15:25:50.628Z,60.70
2018-03-03T15:28:18.183Z,58.43
2018-03-03T15:30:45.743Z,62.93
2018-03-03T15:33:14.955Z,61.20
2018-03-03T15:35:42.528Z,61.07
2018-03-03T15:38:10.085Z,60.80
2018-03-03T15:40:41.542Z,58.80
2018-03-03T15:43:09.242Z,59.57
2018-03-03T15:45:36.775Z,61.47
2018-03-03T15:48:05.682Z,60.40
2018-03-03T15:50:33.212Z,60.60
2018-03-03T15:53:00.770Z,60.83
2018-03-03T15:55:28.306Z,61.30
2018-03-03T15:57:55.961Z,63.03
2018-03-03T16:00:23.684Z,61.50
2018-03-03T16:02:52.464Z,60.67
2018-03-03T16:05:20.756Z,61.05
2018-03-03T16:07:48.291Z,59.40
2018-03-03T16:10:16.290Z,63.40
2018-03-03T16:12:44.078Z,60.37
2018-03-03T16:15:11.640Z,64.37
2018-03-03T16:17:39.155Z,58.47
2018-03-03T16:20:06.732Z,65.85
2018-03-03T16:22:34.260Z,64.00
2018-03-03T16:25:01.839Z,62.70
2018-03-03T16:27:29.390Z,68.32
2018-03-03T16:29:56.967Z,66.95
2018-03-03T16:32:24.511Z,64.03
2018-03-03T16:34:52.068Z,64.07
2018-03-03T16:37:19.600Z,69.70
2018-03-03T16:39:47.188Z,67.10
2018-03-03T16:42:14.746Z,70.57
2018-03-03T16:44:42.309Z,66.33
2018-03-03T16:47:10.795Z,65.50
2018-03-03T16:49:38.889Z,74.53
2018-03-03T16:52:06.909Z,72.80
2018-03-03T16:54:35.259Z,74.77
2018-03-03T16:57:03.391Z,67.10
2018-03-03T16:59:31.880Z,69.43
2018-03-03T17:01:59.929Z,69.47
2018-03-03T17:04:27.483Z,69.37
2018-03-03T17:06:55.038Z,74.28
2018-03-03T17:09:22.603Z,71.43
2018-03-03T17:11:50.147Z,78.20
2018-03-03T17:14:18.233Z,74.70
2018-03-03T17:16:45.800Z,75.93
2018-03-03T17:19:14.592Z,72.40
2018-03-03T17:21:42.205Z,76.32
2018-03-03T17:24:09.767Z,78.23
2018-03-03T17:26:37.384Z,80.00
2018-03-03T17:29:05.028Z,100.80
2018-03-03T17:31:32.860Z,92.90
2018-03-03T17:34:00.581Z,75.57
2018-03-03T17:36:28.725Z,76.15
2018-03-03T17:38:56.381Z,70.17
2018-03-03T17:41:24.228Z,75.07
2018-03-03T17:43:51.818Z,69.10
2018-03-03T17:46:19.414Z,75.35
2018-03-03T17:48:46.971Z,72.07
2018-03-03T17:51:14.539Z,78.23
2018-03-03T17:53:42.111Z,76.00
2018-03-03T17:56:09.689Z,71.87
2018-03-03T17:58:37.641Z,72.75
2018-03-03T18:01:05.227Z,79.68
2018-03-03T18:03:32.779Z,76.73
2018-03-03T18:06:00.341Z,74.37
2018-03-03T18:08:27.889Z,77.15
2018-03-03T18:10:55.429Z,71.53
2018-03-03T18:13:32.373Z,74.43
2018-03-03T18:15:59.901Z,72.97
2018-03-03T18:18:31.018Z,84.75
2018-03-03T18:20:58.548Z,76.32
2018-03-03T18:23:26.112Z,77.75
2018-03-03T18:25:53.649Z,85.37
2018-03-03T18:28:21.564Z,83.15
2018-03-03T18:30:49.109Z,75.50
2018-03-03T18:33:17.947Z,78.27
2018-03-03T18:35:45.520Z,82.17
2018-03-03T18:38:13.210Z,79.00
2018-03-03T18:40:40.795Z,86.10
2018-03-03T18:43:08.385Z,83.87
2018-03-03T18:45:35.937Z,88.97
2018-03-03T18:48:03.496Z,83.15
2018-03-03T18:50:31.023Z,83.53
2018-03-03T18:53:01.693Z,90.97
2018-03-03T18:55:29.426Z,85.32
2018-03-03T18:57:59.472Z,79.33
2018-03-03T19:00:27.227Z,94.07
2018-03-03T19:02:54.772Z,90.23
2018-03-03T19:05:22.328Z,90.07
2018-03-03T19:07:49.866Z,83.27
2018-03-03T19:10:17.438Z,89.70
2018-03-03T19:12:44.959Z,89.10
2018-03-03T19:15:12.516Z,88.63
2018-03-03T19:17:40.051Z,87.03
2018-03-03T19:20:07.593Z,84.70
2018-03-03T19:22:35.168Z,93.43
2018-03-03T19:25:03.707Z,91.03
2018-03-03T19:27:31.307Z,85.87
2018-03-03T19:29:58.827Z,86.95
2018-03-03T19:32:26.407Z,96.83
2018-03-03T19:34:53.940Z,90.97
2018-03-03T19:37:21.953Z,88.22
2018-03-03T19:39:49.470Z,90.27
2018-03-03T19:42:18.488Z,102.28
2018-03-03T19:44:47.698Z,93.20
2018-03-03T19:47:15.272Z,95.70
2018-03-03T19:49:42.846Z,89.23
2018-03-03T19:52:10.804Z,94.87
2018-03-03T19:54:39.384Z,95.93
2018-03-03T19:57:06.980Z,91.10
2018-03-03T19:59:34.553Z,92.87
2018-03-03T20:02:04.055Z,82.00
2018-03-03T20:04:31.839Z,80.50
2018-03-03T20:06:59.365Z,83.33
2018-03-03T20:09:26.891Z,85.93
2018-03-03T20:11:54.471Z,80.27
2018-03-03T20:14:22.274Z,92.50
2018-03-03T20:16:49.848Z,92.90
2018-03-03T20:19:17.395Z,92.83
2018-03-03T20:21:44.981Z,84.57
2018-03-03T20:24:12.508Z,90.10
2018-03-03T20:26:40.036Z,87.90
2018-03-03T20:29:07.599Z,85.67
2018-03-03T20:31:35.155Z,83.43
2018-03-03T20:34:02.711Z,84.37
2018-03-03T20:36:30.264Z,83.43
2018-03-03T20:38:57.843Z,79.20
2018-03-03T20:41:25.372Z,82.83
2018-03-03T20:43:52.978Z,87.10
2018-03-03T20:46:23.338Z,88.27
2018-03-03T20:48:51.073Z,89.13
2018-03-03T20:51:18.591Z,85.20
2018-03-03T20:53:49.384Z,81.05
2018-03-03T20:56:17.063Z,76.83
2018-03-03T20:58:44.583Z,84.00
2018-03-03T21:01:12.175Z,79.10
2018-03-03T21:03:39.791Z,76.33
2018-03-03T21:06:07.372Z,75.70
2018-03-03T21:08:34.900Z,78.43
2018-03-03T21:11:02.477Z,81.57
2018-03-03T21:13:33.443Z,84.60
2018-03-03T21:16:04.998Z,75.85
2018-03-03T21:18:32.712Z,76.77
2018-03-03T21:21:00.262Z,80.33
2018-03-03T21:23:27.799Z,85.03
2018-03-03T21:25:55.399Z,88.50
2018-03-03T21:28:22.999Z,93.90
2018-03-03T21:30:50.564Z,89.53
2018-03-03T21:33:18.121Z,88.47
2018-03-03T21:35:45.692Z,95.47
2018-03-03T21:38:13.219Z,87.50
2018-03-03T21:40:43.575Z,86.07
2018-03-03T21:43:11.593Z,80.97
2018-03-03T21:45:39.191Z,78.70
2018-03-03T21:48:09.457Z,76.87
2018-03-03T21:50:39.697Z,83.80
2018-03-03T21:53:08.035Z,84.67
2018-03-03T21:55:41.560Z,83.20
2018-03-03T21:58:10.396Z,81.23
2018-03-03T22:00:38.521Z,89.43
2018-03-03T22:03:06.052Z,90.63
2018-03-03T22:05:33.800Z,84.77
2018-03-03T22:08:02.554Z,78.32
2018-03-03T22:10:33.065Z,85.10
2018-03-03T22:13:04.991Z,82.68
2018-03-03T22:15:35.315Z,81.05
2018-03-03T22:18:05.653Z,85.30
2018-03-03T22:20:34.861Z,88.47
2018-03-03T22:23:04.225Z,92.85
2018-03-03T22:25:32.808Z,95.87
2018-03-03T22:28:00.621Z,88.95
2018-03-03T22:30:29.771Z,88.30
2018-03-03T22:32:58.224Z,76.62
2018-03-03T22:35:26.664Z,80.77
2018-03-03T22:37:57.031Z,83.27
2018-03-03T22:40:25.647Z,74.70
2018-03-03T22:42:54.410Z,74.37
2018-03-03T22:45:22.215Z,80.55
2018-03-03T22:47:51.165Z,82.50
2018-03-03T22:50:21.179Z,81.97
2018-03-03T22:52:49.065Z,84.40
2018-03-03T22:55:17.058Z,91.30
2018-03-03T22:57:45.069Z,88.87
2018-03-03T23:00:12.705Z,84.03
2018-03-03T23:02:40.445Z,83.10
2018-03-03T23:05:08.884Z,77.55
2018-03-03T23:07:37.371Z,87.77
2018-03-03T23:10:05.438Z,87.00
2018-03-03T23:12:33.060Z,81.07
2018-03-03T23:15:02.230Z,87.62
2018-03-03T23:17:30.216Z,87.03
2018-03-03T23:19:58.868Z,86.30
2018-03-03T23:22:27.922Z,83.20
2018-03-03T23:24:55.450Z,81.03
2018-03-03T23:27:23.280Z,79.97
2018-03-03T23:29:50.808Z,79.17
2018-03-03T23:32:18.378Z,92.03
2018-03-03T23:34:45.908Z,84.90
2018-03-03T23:37:13.484Z,84.93
2018-03-03T23:39:41.032Z,86.37
2018-03-03T23:42:08.572Z,82.73
2018-03-03T23:44:36.488Z,82.55
2018-03-03T23:47:04.042Z,85.55
2018-03-03T23:49:31.621Z,79.37
2018-03-03T23:51:59.176Z,79.23
2018-03-03T23:54:26.752Z,85.20
2018-03-03T23:56:54.395Z,84.50
2018-03-03T23:59:21.966Z,85.43
